PWSweather.com
Personal Weather Stations
Station Observations
SMETHPA
Wilcat Hollow, Upper Marvin Creek, Smethport, PA 16749

Wilcat Hollow, Upper Marvin CreekSmethport, PA 16749

Lat: 41.7178, Lon: -78.5583

Elevation: 1644

Station Type: Davis Vantage Pro 2 Plus

http://www.mckeanweather.com

High Low Average
Temperature 48.9°F9.4°C 31.6°F-0.2°C 39.1°F3.9°C
Dew Point 43.3°F6.3°C 28.9°F-1.7°C 36.2°F2.3°C
Winds 8.0 mph 12.9 kmh Calm Calm 2.0 mph SSW3.2 kmh SSW
Wind Gusts 22.0 mph35.4 kmh -- 7.0 mph11.3 kmh
Humidity 96% 75% 89%
Pressure 30.33 in1027.1 mb 30.02 in1016.6 mb -
Precipitation 0.17 in4.3 mm - -
Hour Temp Dew Point Humidity Winds Wind Gusts Pressure Precip Precip Rate Daily Precip Total
12:00 AM 35.1°F1.7°C 33.8°F1.0°C 95% 1.0 mph SW1.6 kmh SW 2.0 mph3.2 kmh 30.11 in1019.6 mb 0.00 in0.0 mm 0.00 in0.0 mm 0.00 in0.0 mm
12:10 AM 34.9°F1.6°C 33.6°F0.9°C 95% Calm Calm 2.0 mph3.2 kmh 30.10 in1019.3 mb 0.00 in0.0 mm 0.00 in0.0 mm 0.00 in0.0 mm
12:20 AM 34.8°F1.6°C 33.5°F0.8°C 95% Calm Calm 2.0 mph3.2 kmh 30.10 in1019.3 mb 0.00 in0.0 mm 0.00 in0.0 mm 0.00 in0.0 mm
12:30 AM 34.6°F1.4°C 33.1°F0.6°C 94% Calm Calm 1.0 mph1.6 kmh 30.10 in1019.3 mb 0.00 in0.0 mm 0.00 in0.0 mm 0.00 in0.0 mm
12:40 AM 34.4°F1.3°C 32.9°F0.5°C 94% Calm Calm 1.0 mph1.6 kmh 30.10 in1019.3 mb 0.00 in0.0 mm 0.00 in0.0 mm 0.00 in0.0 mm
12:50 AM 34.3°F1.3°C 33.0°F0.6°C 95% Calm Calm 2.0 mph3.2 kmh 30.09 in1019.0 mb 0.00 in0.0 mm 0.00 in0.0 mm 0.00 in0.0 mm
01:00 AM 34.4°F1.3°C 33.1°F0.6°C 95% Calm Calm 8.0 mph12.9 kmh 30.09 in1019.0 mb 0.00 in0.0 mm 0.00 in0.0 mm 0.00 in0.0 mm
01:10 AM 34.7°F1.5°C 33.4°F0.8°C 95% Calm Calm 5.0 mph8.0 kmh 30.09 in1019.0 mb 0.00 in0.0 mm 0.00 in0.0 mm 0.00 in0.0 mm
01:20 AM 34.9°F1.6°C 33.6°F0.9°C 95% Calm Calm 3.0 mph4.8 kmh 30.08 in1018.6 mb 0.00 in0.0 mm 0.00 in0.0 mm 0.00 in0.0 mm
01:30 AM 34.9°F1.6°C 33.6°F0.9°C 95% Calm Calm 7.0 mph11.3 kmh 30.08 in1018.6 mb 0.00 in0.0 mm 0.00 in0.0 mm 0.00 in0.0 mm
01:40 AM 35.0°F1.7°C 33.7°F0.9°C 95% 1.0 mph WSW1.6 kmh WSW 3.0 mph4.8 kmh 30.08 in1018.6 mb 0.00 in0.0 mm 0.00 in0.0 mm 0.00 in0.0 mm
01:50 AM 35.1°F1.7°C 33.8°F1.0°C 95% Calm Calm 2.0 mph3.2 kmh 30.08 in1018.6 mb 0.00 in0.0 mm 0.00 in0.0 mm 0.00 in0.0 mm
02:00 AM 35.1°F1.7°C 33.8°F1.0°C 95% Calm Calm 2.0 mph3.2 kmh 30.07 in1018.3 mb 0.00 in0.0 mm 0.00 in0.0 mm 0.00 in0.0 mm
02:10 AM 35.2°F1.8°C 33.9°F1.1°C 95% Calm Calm 3.0 mph4.8 kmh 30.07 in1018.3 mb 0.00 in0.0 mm 0.00 in0.0 mm 0.00 in0.0 mm
02:20 AM 35.2°F1.8°C 33.9°F1.1°C 95% Calm Calm 4.0 mph6.4 kmh 30.07 in1018.3 mb 0.00 in0.0 mm 0.00 in0.0 mm 0.00 in0.0 mm
02:30 AM 35.2°F1.8°C 33.9°F1.1°C 95% Calm Calm 3.0 mph4.8 kmh 30.06 in1017.9 mb 0.00 in0.0 mm 0.00 in0.0 mm 0.00 in0.0 mm
02:40 AM 35.2°F1.8°C 33.9°F1.1°C 95% Calm Calm 6.0 mph9.7 kmh 30.07 in1018.3 mb 0.00 in0.0 mm 0.00 in0.0 mm 0.00 in0.0 mm
02:50 AM 35.3°F1.8°C 34.3°F1.3°C 96% 1.0 mph WSW1.6 kmh WSW 4.0 mph6.4 kmh 30.07 in1018.3 mb 0.00 in0.0 mm 0.00 in0.0 mm 0.00 in0.0 mm
03:00 AM 35.5°F1.9°C 34.5°F1.4°C 96% Calm Calm 5.0 mph8.0 kmh 30.06 in1017.9 mb 0.00 in0.0 mm 0.00 in0.0 mm 0.00 in0.0 mm
03:10 AM 35.8°F2.1°C 34.8°F1.6°C 96% 1.0 mph WSW1.6 kmh WSW 4.0 mph6.4 kmh 30.06 in1017.9 mb 0.00 in0.0 mm 0.00 in0.0 mm 0.00 in0.0 mm
03:20 AM 36.1°F2.3°C 35.1°F1.7°C 96% 1.0 mph WSW1.6 kmh WSW 4.0 mph6.4 kmh 30.05 in1017.6 mb 0.00 in0.0 mm 0.00 in0.0 mm 0.00 in0.0 mm
03:30 AM 36.3°F2.4°C 35.0°F1.7°C 95% 1.0 mph WSW1.6 kmh WSW 6.0 mph9.7 kmh 30.06 in1017.9 mb 0.00 in0.0 mm 0.00 in0.0 mm 0.00 in0.0 mm
03:40 AM 36.6°F2.6°C 35.3°F1.8°C 95% 2.0 mph WSW3.2 kmh WSW 9.0 mph14.5 kmh 30.05 in1017.6 mb 0.00 in0.0 mm 0.00 in0.0 mm 0.00 in0.0 mm
03:50 AM 36.8°F2.7°C 35.5°F1.9°C 95% 2.0 mph WSW3.2 kmh WSW 5.0 mph8.0 kmh 30.05 in1017.6 mb 0.00 in0.0 mm 0.00 in0.0 mm 0.00 in0.0 mm
04:00 AM 37.0°F2.8°C 35.7°F2.1°C 95% 1.0 mph WSW1.6 kmh WSW 7.0 mph11.3 kmh 30.05 in1017.6 mb 0.00 in0.0 mm 0.00 in0.0 mm 0.00 in0.0 mm
04:10 AM 37.4°F3.0°C 36.1°F2.3°C 95% 2.0 mph WSW3.2 kmh WSW 9.0 mph14.5 kmh 30.05 in1017.6 mb 0.00 in0.0 mm 0.00 in0.0 mm 0.00 in0.0 mm
04:20 AM 37.9°F3.3°C 36.3°F2.4°C 94% 2.0 mph WSW3.2 kmh WSW 8.0 mph12.9 kmh 30.05 in1017.6 mb 0.00 in0.0 mm 0.00 in0.0 mm 0.00 in0.0 mm
04:30 AM 38.3°F3.5°C 36.7°F2.6°C 94% 2.0 mph WSW3.2 kmh WSW 9.0 mph14.5 kmh 30.05 in1017.6 mb 0.00 in0.0 mm 0.00 in0.0 mm 0.00 in0.0 mm
04:40 AM 38.5°F3.6°C 36.7°F2.6°C 93% 2.0 mph WSW3.2 kmh WSW 7.0 mph11.3 kmh 30.04 in1017.3 mb 0.00 in0.0 mm 0.00 in0.0 mm 0.00 in0.0 mm
04:50 AM 38.7°F3.7°C 36.9°F2.7°C 93% 1.0 mph WSW1.6 kmh WSW 8.0 mph12.9 kmh 30.04 in1017.3 mb 0.00 in0.0 mm 0.00 in0.0 mm 0.00 in0.0 mm
05:00 AM 38.8°F3.8°C 36.7°F2.6°C 92% 2.0 mph WSW3.2 kmh WSW 7.0 mph11.3 kmh 30.04 in1017.3 mb 0.00 in0.0 mm 0.00 in0.0 mm 0.00 in0.0 mm
05:10 AM 38.8°F3.8°C 36.7°F2.6°C 92% 2.0 mph WSW3.2 kmh WSW 8.0 mph12.9 kmh 30.04 in1017.3 mb 0.00 in0.0 mm 0.00 in0.0 mm 0.00 in0.0 mm
05:20 AM 38.8°F3.8°C 36.4°F2.4°C 91% 2.0 mph WSW3.2 kmh WSW 6.0 mph9.7 kmh 30.04 in1017.3 mb 0.00 in0.0 mm 0.00 in0.0 mm 0.00 in0.0 mm
05:30 AM 38.6°F3.7°C 36.2°F2.3°C 91% 1.0 mph WSW1.6 kmh WSW 8.0 mph12.9 kmh 30.03 in1016.9 mb 0.00 in0.0 mm 0.00 in0.0 mm 0.00 in0.0 mm
05:40 AM 38.5°F3.6°C 36.1°F2.3°C 91% 2.0 mph WSW3.2 kmh WSW 10.0 mph16.1 kmh 30.04 in1017.3 mb 0.00 in0.0 mm 0.00 in0.0 mm 0.00 in0.0 mm
05:50 AM 38.3°F3.5°C 35.6°F2.0°C 90% 2.0 mph WSW3.2 kmh WSW 7.0 mph11.3 kmh 30.04 in1017.3 mb 0.00 in0.0 mm 0.00 in0.0 mm 0.00 in0.0 mm
06:00 AM 38.1°F3.4°C 35.4°F1.9°C 90% 2.0 mph WSW3.2 kmh WSW 8.0 mph12.9 kmh 30.04 in1017.3 mb 0.00 in0.0 mm 0.00 in0.0 mm 0.00 in0.0 mm
06:10 AM 37.9°F3.3°C 35.2°F1.8°C 90% 2.0 mph WSW3.2 kmh WSW 6.0 mph9.7 kmh 30.04 in1017.3 mb 0.00 in0.0 mm 0.00 in0.0 mm 0.00 in0.0 mm
06:20 AM 37.8°F3.2°C 35.4°F1.9°C 91% 2.0 mph WSW3.2 kmh WSW 6.0 mph9.7 kmh 30.04 in1017.3 mb 0.00 in0.0 mm 0.00 in0.0 mm 0.00 in0.0 mm
06:30 AM 37.6°F3.1°C 35.2°F1.8°C 91% 1.0 mph WSW1.6 kmh WSW 7.0 mph11.3 kmh 30.04 in1017.3 mb 0.00 in0.0 mm 0.00 in0.0 mm 0.00 in0.0 mm
06:40 AM 37.4°F3.0°C 35.0°F1.7°C 91% 1.0 mph WSW1.6 kmh WSW 4.0 mph6.4 kmh 30.03 in1016.9 mb 0.00 in0.0 mm 0.00 in0.0 mm 0.00 in0.0 mm
06:50 AM 37.4°F3.0°C 35.0°F1.7°C 91% 2.0 mph WSW3.2 kmh WSW 8.0 mph12.9 kmh 30.03 in1016.9 mb 0.00 in0.0 mm 0.00 in0.0 mm 0.00 in0.0 mm
07:00 AM 37.5°F3.1°C 35.4°F1.9°C 92% 2.0 mph WSW3.2 kmh WSW 11.0 mph17.7 kmh 30.03 in1016.9 mb 0.00 in0.0 mm 0.00 in0.0 mm 0.00 in0.0 mm
07:10 AM 37.5°F3.1°C 35.1°F1.7°C 91% 3.0 mph WSW4.8 kmh WSW 7.0 mph11.3 kmh 30.04 in1017.3 mb 0.00 in0.0 mm 0.00 in0.0 mm 0.00 in0.0 mm
07:20 AM 37.5°F3.1°C 35.1°F1.7°C 91% 2.0 mph WSW3.2 kmh WSW 7.0 mph11.3 kmh 30.04 in1017.3 mb 0.00 in0.0 mm 0.00 in0.0 mm 0.00 in0.0 mm
07:30 AM 37.5°F3.1°C 35.1°F1.7°C 91% 2.0 mph WSW3.2 kmh WSW 8.0 mph12.9 kmh 30.04 in1017.3 mb 0.00 in0.0 mm 0.00 in0.0 mm 0.00 in0.0 mm
07:40 AM 37.4°F3.0°C 35.0°F1.7°C 91% 1.0 mph WSW1.6 kmh WSW 4.0 mph6.4 kmh 30.04 in1017.3 mb 0.00 in0.0 mm 0.00 in0.0 mm 0.00 in0.0 mm
07:50 AM 37.3°F2.9°C 34.9°F1.6°C 91% 1.0 mph WSW1.6 kmh WSW 7.0 mph11.3 kmh 30.04 in1017.3 mb 0.00 in0.0 mm 0.00 in0.0 mm 0.00 in0.0 mm
08:00 AM 37.4°F3.0°C 35.3°F1.8°C 92% 2.0 mph WSW3.2 kmh WSW 9.0 mph14.5 kmh 30.03 in1016.9 mb 0.00 in0.0 mm 0.00 in0.0 mm 0.00 in0.0 mm
08:10 AM 37.6°F3.1°C 35.5°F1.9°C 92% 2.0 mph WSW3.2 kmh WSW 9.0 mph14.5 kmh 30.03 in1016.9 mb 0.00 in0.0 mm 0.00 in0.0 mm 0.00 in0.0 mm
08:20 AM 37.9°F3.3°C 35.8°F2.1°C 92% 3.0 mph SW4.8 kmh SW 10.0 mph16.1 kmh 30.03 in1016.9 mb 0.00 in0.0 mm 0.00 in0.0 mm 0.00 in0.0 mm
08:30 AM 38.2°F3.4°C 36.1°F2.3°C 92% 3.0 mph WSW4.8 kmh WSW 7.0 mph11.3 kmh 30.03 in1016.9 mb 0.00 in0.0 mm 0.00 in0.0 mm 0.00 in0.0 mm
08:40 AM 38.5°F3.6°C 36.4°F2.4°C 92% 2.0 mph SW3.2 kmh SW 7.0 mph11.3 kmh 30.03 in1016.9 mb 0.00 in0.0 mm 0.00 in0.0 mm 0.00 in0.0 mm
08:50 AM 38.8°F3.8°C 36.4°F2.4°C 91% 3.0 mph S4.8 kmh S 8.0 mph12.9 kmh 30.02 in1016.6 mb 0.00 in0.0 mm 0.00 in0.0 mm 0.00 in0.0 mm
09:00 AM 39.2°F4.0°C 36.5°F2.5°C 90% 3.0 mph SW4.8 kmh SW 7.0 mph11.3 kmh 30.03 in1016.9 mb 0.00 in0.0 mm 0.00 in0.0 mm 0.00 in0.0 mm
09:10 AM 40.2°F4.6°C 37.5°F3.1°C 90% 4.0 mph SW6.4 kmh SW 9.0 mph14.5 kmh 30.03 in1016.9 mb 0.00 in0.0 mm 0.00 in0.0 mm 0.00 in0.0 mm
09:20 AM 41.5°F5.3°C 38.2°F3.4°C 88% 3.0 mph SW4.8 kmh SW 10.0 mph16.1 kmh 30.03 in1016.9 mb 0.00 in0.0 mm 0.00 in0.0 mm 0.00 in0.0 mm
09:30 AM 42.1°F5.6°C 38.2°F3.4°C 86% 3.0 mph SSW4.8 kmh SSW 12.0 mph19.3 kmh 30.03 in1016.9 mb 0.00 in0.0 mm 0.00 in0.0 mm 0.00 in0.0 mm
09:40 AM 42.9°F6.1°C 39.0°F3.9°C 86% 3.0 mph SSW4.8 kmh SSW 11.0 mph17.7 kmh 30.03 in1016.9 mb 0.00 in0.0 mm 0.00 in0.0 mm 0.00 in0.0 mm
09:50 AM 43.3°F6.3°C 39.1°F3.9°C 85% 4.0 mph S6.4 kmh S 10.0 mph16.1 kmh 30.04 in1017.3 mb 0.00 in0.0 mm 0.00 in0.0 mm 0.00 in0.0 mm
10:00 AM 43.3°F6.3°C 38.5°F3.6°C 83% 3.0 mph SW4.8 kmh SW 9.0 mph14.5 kmh 30.04 in1017.3 mb 0.00 in0.0 mm 0.00 in0.0 mm 0.00 in0.0 mm
10:10 AM 43.3°F6.3°C 38.5°F3.6°C 83% 4.0 mph SW6.4 kmh SW 9.0 mph14.5 kmh 30.04 in1017.3 mb 0.00 in0.0 mm 0.00 in0.0 mm 0.00 in0.0 mm
10:20 AM 43.2°F6.2°C 38.4°F3.6°C 83% 4.0 mph SW6.4 kmh SW 15.0 mph24.1 kmh 30.05 in1017.6 mb 0.00 in0.0 mm 0.00 in0.0 mm 0.00 in0.0 mm
10:30 AM 42.9°F6.1°C 38.1°F3.4°C 83% 3.0 mph WSW4.8 kmh WSW 6.0 mph9.7 kmh 30.05 in1017.6 mb 0.00 in0.0 mm 0.00 in0.0 mm 0.00 in0.0 mm
10:40 AM 42.6°F5.9°C 37.8°F3.2°C 83% 2.0 mph WSW3.2 kmh WSW 9.0 mph14.5 kmh 30.05 in1017.6 mb 0.00 in0.0 mm 0.00 in0.0 mm 0.00 in0.0 mm
10:50 AM 42.4°F5.8°C 37.9°F3.3°C 84% 3.0 mph WSW4.8 kmh WSW 6.0 mph9.7 kmh 30.04 in1017.3 mb 0.00 in0.0 mm 0.00 in0.0 mm 0.00 in0.0 mm
11:00 AM 42.4°F5.8°C 38.2°F3.4°C 85% 2.0 mph S3.2 kmh S 7.0 mph11.3 kmh 30.03 in1016.9 mb 0.00 in0.0 mm 0.00 in0.0 mm 0.00 in0.0 mm
11:10 AM 43.3°F6.3°C 39.4°F4.1°C 86% 2.0 mph SSW3.2 kmh SSW 9.0 mph14.5 kmh 30.03 in1016.9 mb 0.00 in0.0 mm 0.00 in0.0 mm 0.00 in0.0 mm
11:20 AM 44.2°F6.8°C 39.7°F4.3°C 84% 2.0 mph SW3.2 kmh SW 8.0 mph12.9 kmh 30.03 in1016.9 mb 0.00 in0.0 mm 0.00 in0.0 mm 0.00 in0.0 mm
11:30 AM 44.3°F6.8°C 39.5°F4.2°C 83% 3.0 mph SW4.8 kmh SW 10.0 mph16.1 kmh 30.04 in1017.3 mb 0.00 in0.0 mm 0.00 in0.0 mm 0.00 in0.0 mm
11:40 AM 43.9°F6.6°C 39.4°F4.1°C 84% 3.0 mph SW4.8 kmh SW 8.0 mph12.9 kmh 30.05 in1017.6 mb 0.00 in0.0 mm 0.00 in0.0 mm 0.00 in0.0 mm
11:50 AM 43.7°F6.5°C 40.1°F4.5°C 87% 2.0 mph WSW3.2 kmh WSW 7.0 mph11.3 kmh 30.05 in1017.6 mb 0.00 in0.0 mm 0.00 in0.0 mm 0.00 in0.0 mm
12:00 PM 43.5°F6.4°C 40.2°F4.6°C 88% 2.0 mph WSW3.2 kmh WSW 7.0 mph11.3 kmh 30.05 in1017.6 mb 0.00 in0.0 mm 0.00 in0.0 mm 0.00 in0.0 mm
12:10 PM 43.5°F6.4°C 40.2°F4.6°C 88% 2.0 mph WSW3.2 kmh WSW 6.0 mph9.7 kmh 30.06 in1017.9 mb 0.00 in0.0 mm 0.00 in0.0 mm 0.00 in0.0 mm
12:20 PM 43.7°F6.5°C 40.7°F4.8°C 89% 1.0 mph WSW1.6 kmh WSW 6.0 mph9.7 kmh 30.05 in1017.6 mb 0.00 in0.0 mm 0.00 in0.0 mm 0.00 in0.0 mm
12:30 PM 44.3°F6.8°C 41.6°F5.3°C 90% 2.0 mph WSW3.2 kmh WSW 14.0 mph22.5 kmh 30.06 in1017.9 mb 0.00 in0.0 mm 0.00 in0.0 mm 0.00 in0.0 mm
12:40 PM 44.8°F7.1°C 41.8°F5.4°C 89% 2.0 mph SW3.2 kmh SW 8.0 mph12.9 kmh 30.06 in1017.9 mb 0.00 in0.0 mm 0.00 in0.0 mm 0.00 in0.0 mm
12:50 PM 45.4°F7.4°C 42.1°F5.6°C 88% 3.0 mph SSW4.8 kmh SSW 10.0 mph16.1 kmh 30.05 in1017.6 mb 0.00 in0.0 mm 0.00 in0.0 mm 0.00 in0.0 mm
01:00 PM 47.1°F8.4°C 42.8°F6.0°C 85% 3.0 mph SW4.8 kmh SW 12.0 mph19.3 kmh 30.05 in1017.6 mb 0.00 in0.0 mm 0.00 in0.0 mm 0.00 in0.0 mm
01:10 PM 48.5°F9.2°C 43.3°F6.3°C 82% 5.0 mph SW8.0 kmh SW 17.0 mph27.4 kmh 30.05 in1017.6 mb 0.00 in0.0 mm 0.00 in0.0 mm 0.00 in0.0 mm
01:20 PM 48.9°F9.4°C 42.0°F5.6°C 77% 5.0 mph WSW8.0 kmh WSW 22.0 mph35.4 kmh 30.05 in1017.6 mb 0.00 in0.0 mm 0.00 in0.0 mm 0.00 in0.0 mm
01:30 PM 48.1°F8.9°C 40.5°F4.7°C 75% 7.0 mph WSW11.3 kmh WSW 17.0 mph27.4 kmh 30.07 in1018.3 mb 0.00 in0.0 mm 0.00 in0.0 mm 0.00 in0.0 mm
01:40 PM 43.3°F6.3°C 37.5°F3.1°C 80% 8.0 mph SW12.9 kmh SW 20.0 mph32.2 kmh 30.08 in1018.6 mb 0.08 in2.0 mm 0.48 in12.2 mm 0.08 in2.0 mm
01:50 PM 42.2°F5.7°C 39.2°F4.0°C 89% 5.0 mph SSW8.0 kmh SSW 6.0 mph9.7 kmh 30.07 in1018.3 mb 0.09 in2.3 mm 0.06 in1.5 mm 0.09 in2.3 mm
02:00 PM 43.2°F6.2°C 40.8°F4.9°C 91% 3.0 mph SW4.8 kmh SW 9.0 mph14.5 kmh 30.07 in1018.3 mb 0.09 in2.3 mm 0.00 in0.0 mm 0.09 in2.3 mm
02:10 PM 43.1°F6.2°C 40.7°F4.8°C 91% 3.0 mph W4.8 kmh W 14.0 mph22.5 kmh 30.07 in1018.3 mb 0.09 in2.3 mm 0.00 in0.0 mm 0.09 in2.3 mm
02:20 PM 45.6°F7.6°C 43.1°F6.2°C 91% 3.0 mph WSW4.8 kmh WSW 9.0 mph14.5 kmh 30.07 in1018.3 mb 0.09 in2.3 mm 0.00 in0.0 mm 0.09 in2.3 mm
02:30 PM 45.9°F7.7°C 41.9°F5.5°C 86% 4.0 mph WSW6.4 kmh WSW 16.0 mph25.7 kmh 30.07 in1018.3 mb 0.08 in2.0 mm 0.00 in0.0 mm 0.09 in2.3 mm
02:40 PM 45.6°F7.6°C 41.4°F5.2°C 85% 4.0 mph WSW6.4 kmh WSW 9.0 mph14.5 kmh 30.08 in1018.6 mb 0.01 in0.3 mm 0.00 in0.0 mm 0.09 in2.3 mm
02:50 PM 43.8°F6.6°C 38.7°F3.7°C 82% 4.0 mph SW6.4 kmh SW 15.0 mph24.1 kmh 30.09 in1019.0 mb 0.01 in0.3 mm 0.00 in0.0 mm 0.10 in2.5 mm
03:00 PM 43.2°F6.2°C 39.3°F4.1°C 86% 4.0 mph WSW6.4 kmh WSW 12.0 mph19.3 kmh 30.10 in1019.3 mb 0.01 in0.3 mm 0.00 in0.0 mm 0.10 in2.5 mm
03:10 PM 43.3°F6.3°C 39.1°F3.9°C 85% 4.0 mph SW6.4 kmh SW 15.0 mph24.1 kmh 30.09 in1019.0 mb 0.01 in0.3 mm 0.00 in0.0 mm 0.10 in2.5 mm
03:20 PM 43.2°F6.2°C 39.0°F3.9°C 85% 4.0 mph SW6.4 kmh SW 12.0 mph19.3 kmh 30.10 in1019.3 mb 0.01 in0.3 mm 0.00 in0.0 mm 0.10 in2.5 mm
03:30 PM 43.3°F6.3°C 39.1°F3.9°C 85% 5.0 mph WSW8.0 kmh WSW 12.0 mph19.3 kmh 30.10 in1019.3 mb 0.01 in0.3 mm 0.00 in0.0 mm 0.10 in2.5 mm
03:40 PM 43.6°F6.4°C 39.7°F4.3°C 86% 3.0 mph WSW4.8 kmh WSW 8.0 mph12.9 kmh 30.11 in1019.6 mb 0.01 in0.3 mm 0.00 in0.0 mm 0.10 in2.5 mm
03:50 PM 43.9°F6.6°C 39.1°F3.9°C 83% 3.0 mph WSW4.8 kmh WSW 14.0 mph22.5 kmh 30.10 in1019.3 mb 0.00 in0.0 mm 0.00 in0.0 mm 0.10 in2.5 mm
04:00 PM 44.5°F6.9°C 39.0°F3.9°C 81% 6.0 mph W9.7 kmh W 17.0 mph27.4 kmh 30.13 in1020.3 mb 0.01 in0.3 mm 0.01 in0.3 mm 0.11 in2.8 mm
04:10 PM 42.6°F5.9°C 38.1°F3.4°C 84% 6.0 mph WSW9.7 kmh WSW 11.0 mph17.7 kmh 30.12 in1020.0 mb 0.01 in0.3 mm 0.00 in0.0 mm 0.11 in2.8 mm
04:20 PM 41.6°F5.3°C 37.7°F3.2°C 86% 4.0 mph WSW6.4 kmh WSW 15.0 mph24.1 kmh 30.12 in1020.0 mb 0.01 in0.3 mm 0.00 in0.0 mm 0.11 in2.8 mm
04:30 PM 41.3°F5.2°C 37.4°F3.0°C 86% 4.0 mph SW6.4 kmh SW 8.0 mph12.9 kmh 30.12 in1020.0 mb 0.01 in0.3 mm 0.00 in0.0 mm 0.11 in2.8 mm
04:40 PM 41.1°F5.1°C 37.8°F3.2°C 88% 3.0 mph WSW4.8 kmh WSW 10.0 mph16.1 kmh 30.13 in1020.3 mb 0.01 in0.3 mm 0.00 in0.0 mm 0.11 in2.8 mm
04:50 PM 41.2°F5.1°C 38.2°F3.4°C 89% 3.0 mph WSW4.8 kmh WSW 11.0 mph17.7 kmh 30.14 in1020.7 mb 0.02 in0.5 mm 0.06 in1.5 mm 0.12 in3.0 mm
05:00 PM 41.3°F5.2°C 38.3°F3.5°C 89% 3.0 mph WSW4.8 kmh WSW 7.0 mph11.3 kmh 30.14 in1020.7 mb 0.01 in0.3 mm 0.00 in0.0 mm 0.12 in3.0 mm
05:10 PM 41.1°F5.1°C 38.1°F3.4°C 89% 3.0 mph S4.8 kmh S 8.0 mph12.9 kmh 30.14 in1020.7 mb 0.01 in0.3 mm 0.00 in0.0 mm 0.12 in3.0 mm
05:20 PM 41.0°F5.0°C 38.3°F3.5°C 90% 2.0 mph S3.2 kmh S 6.0 mph9.7 kmh 30.14 in1020.7 mb 0.01 in0.3 mm 0.00 in0.0 mm 0.12 in3.0 mm
05:30 PM 40.9°F4.9°C 38.2°F3.4°C 90% Calm Calm 3.0 mph4.8 kmh 30.15 in1021.0 mb 0.01 in0.3 mm 0.00 in0.0 mm 0.12 in3.0 mm
05:40 PM 40.9°F4.9°C 38.5°F3.6°C 91% Calm Calm 2.0 mph3.2 kmh 30.15 in1021.0 mb 0.01 in0.3 mm 0.00 in0.0 mm 0.12 in3.0 mm
05:50 PM 40.8°F4.9°C 38.4°F3.6°C 91% 1.0 mph WSW1.6 kmh WSW 8.0 mph12.9 kmh 30.16 in1021.3 mb 0.00 in0.0 mm 0.00 in0.0 mm 0.12 in3.0 mm
06:00 PM 39.9°F4.4°C 37.2°F2.9°C 90% 4.0 mph SW6.4 kmh SW 17.0 mph27.4 kmh 30.18 in1022.0 mb 0.04 in1.0 mm 0.05 in1.3 mm 0.16 in4.1 mm
06:10 PM 39.2°F4.0°C 36.5°F2.5°C 90% 4.0 mph SSW6.4 kmh SSW 9.0 mph14.5 kmh 30.18 in1022.0 mb 0.04 in1.0 mm 0.00 in0.0 mm 0.16 in4.1 mm
06:20 PM 38.8°F3.8°C 36.4°F2.4°C 91% 2.0 mph SSW3.2 kmh SSW 7.0 mph11.3 kmh 30.18 in1022.0 mb 0.05 in1.3 mm 0.06 in1.5 mm 0.17 in4.3 mm
06:30 PM 38.6°F3.7°C 36.5°F2.5°C 92% 1.0 mph S1.6 kmh S 4.0 mph6.4 kmh 30.19 in1022.4 mb 0.05 in1.3 mm 0.00 in0.0 mm 0.17 in4.3 mm
06:40 PM 38.5°F3.6°C 36.4°F2.4°C 92% 1.0 mph S1.6 kmh S 2.0 mph3.2 kmh 30.20 in1022.7 mb 0.05 in1.3 mm 0.00 in0.0 mm 0.17 in4.3 mm
06:50 PM 38.4°F3.6°C 36.6°F2.6°C 93% Calm Calm 4.0 mph6.4 kmh 30.20 in1022.7 mb 0.05 in1.3 mm 0.00 in0.0 mm 0.17 in4.3 mm
07:00 PM 38.3°F3.5°C 36.5°F2.5°C 93% 1.0 mph S1.6 kmh S 6.0 mph9.7 kmh 30.20 in1022.7 mb 0.01 in0.3 mm 0.00 in0.0 mm 0.17 in4.3 mm
07:10 PM 38.2°F3.4°C 36.4°F2.4°C 93% 2.0 mph SW3.2 kmh SW 4.0 mph6.4 kmh 30.21 in1023.0 mb 0.01 in0.3 mm 0.00 in0.0 mm 0.17 in4.3 mm
07:20 PM 38.3°F3.5°C 36.5°F2.5°C 93% 1.0 mph SW1.6 kmh SW 4.0 mph6.4 kmh 30.21 in1023.0 mb 0.00 in0.0 mm 0.00 in0.0 mm 0.17 in4.3 mm
07:30 PM 38.2°F3.4°C 36.4°F2.4°C 93% 1.0 mph SW1.6 kmh SW 3.0 mph4.8 kmh 30.22 in1023.4 mb 0.00 in0.0 mm 0.00 in0.0 mm 0.17 in4.3 mm
07:40 PM 38.2°F3.4°C 36.4°F2.4°C 93% Calm Calm 3.0 mph4.8 kmh 30.22 in1023.4 mb 0.00 in0.0 mm 0.00 in0.0 mm 0.17 in4.3 mm
07:50 PM 38.0°F3.3°C 36.2°F2.3°C 93% 1.0 mph SW1.6 kmh SW 5.0 mph8.0 kmh 30.23 in1023.7 mb 0.00 in0.0 mm 0.00 in0.0 mm 0.17 in4.3 mm
08:00 PM 37.9°F3.3°C 35.8°F2.1°C 92% 1.0 mph SW1.6 kmh SW 5.0 mph8.0 kmh 30.23 in1023.7 mb 0.00 in0.0 mm 0.00 in0.0 mm 0.17 in4.3 mm
08:10 PM 37.7°F3.2°C 35.3°F1.8°C 91% 2.0 mph WSW3.2 kmh WSW 9.0 mph14.5 kmh 30.23 in1023.7 mb 0.00 in0.0 mm 0.00 in0.0 mm 0.17 in4.3 mm
08:20 PM 37.6°F3.1°C 35.2°F1.8°C 91% 2.0 mph W3.2 kmh W 5.0 mph8.0 kmh 30.24 in1024.0 mb 0.00 in0.0 mm 0.00 in0.0 mm 0.17 in4.3 mm
08:30 PM 37.4°F3.0°C 35.0°F1.7°C 91% 1.0 mph WSW1.6 kmh WSW 3.0 mph4.8 kmh 30.24 in1024.0 mb 0.00 in0.0 mm 0.00 in0.0 mm 0.17 in4.3 mm
08:40 PM 37.4°F3.0°C 34.7°F1.5°C 90% Calm Calm 6.0 mph9.7 kmh 30.26 in1024.7 mb 0.00 in0.0 mm 0.00 in0.0 mm 0.17 in4.3 mm
08:50 PM 37.2°F2.9°C 34.3°F1.3°C 89% 2.0 mph WSW3.2 kmh WSW 11.0 mph17.7 kmh 30.26 in1024.7 mb 0.00 in0.0 mm 0.00 in0.0 mm 0.17 in4.3 mm
09:00 PM 37.1°F2.8°C 34.2°F1.2°C 89% 2.0 mph SW3.2 kmh SW 6.0 mph9.7 kmh 30.26 in1024.7 mb 0.00 in0.0 mm 0.00 in0.0 mm 0.17 in4.3 mm
09:10 PM 36.8°F2.7°C 33.9°F1.1°C 89% 2.0 mph SW3.2 kmh SW 6.0 mph9.7 kmh 30.27 in1025.1 mb 0.00 in0.0 mm 0.00 in0.0 mm 0.17 in4.3 mm
09:20 PM 36.7°F2.6°C 34.0°F1.1°C 90% 1.0 mph SW1.6 kmh SW 4.0 mph6.4 kmh 30.27 in1025.1 mb 0.00 in0.0 mm 0.00 in0.0 mm 0.17 in4.3 mm
09:30 PM 36.7°F2.6°C 34.0°F1.1°C 90% 2.0 mph SSW3.2 kmh SSW 6.0 mph9.7 kmh 30.28 in1025.4 mb 0.00 in0.0 mm 0.00 in0.0 mm 0.17 in4.3 mm
09:40 PM 36.7°F2.6°C 34.0°F1.1°C 90% 1.0 mph SSW1.6 kmh SSW 3.0 mph4.8 kmh 30.29 in1025.7 mb 0.00 in0.0 mm 0.00 in0.0 mm 0.17 in4.3 mm
09:50 PM 36.7°F2.6°C 34.0°F1.1°C 90% 1.0 mph SSW1.6 kmh SSW 5.0 mph8.0 kmh 30.30 in1026.1 mb 0.00 in0.0 mm 0.00 in0.0 mm 0.17 in4.3 mm
10:00 PM 36.7°F2.6°C 33.5°F0.8°C 88% 3.0 mph WSW4.8 kmh WSW 14.0 mph22.5 kmh 30.30 in1026.1 mb 0.00 in0.0 mm 0.00 in0.0 mm 0.17 in4.3 mm
10:10 PM 36.6°F2.6°C 32.8°F0.4°C 86% 2.0 mph WSW3.2 kmh WSW 5.0 mph8.0 kmh 30.30 in1026.1 mb 0.00 in0.0 mm 0.00 in0.0 mm 0.17 in4.3 mm
10:20 PM 36.6°F2.6°C 32.5°F0.3°C 85% 2.0 mph SW3.2 kmh SW 8.0 mph12.9 kmh 30.30 in1026.1 mb 0.00 in0.0 mm 0.00 in0.0 mm 0.17 in4.3 mm
10:30 PM 36.5°F2.5°C 32.1°F0.1°C 84% 2.0 mph S3.2 kmh S 6.0 mph9.7 kmh 30.30 in1026.1 mb 0.00 in0.0 mm 0.00 in0.0 mm 0.17 in4.3 mm
10:40 PM 36.1°F2.3°C 31.4°F-0.3°C 83% 1.0 mph S1.6 kmh S 5.0 mph8.0 kmh 30.31 in1026.4 mb 0.00 in0.0 mm 0.00 in0.0 mm 0.17 in4.3 mm
10:50 PM 35.7°F2.1°C 31.3°F-0.4°C 84% 1.0 mph SSW1.6 kmh SSW 4.0 mph6.4 kmh 30.32 in1026.8 mb 0.00 in0.0 mm 0.00 in0.0 mm 0.17 in4.3 mm
11:00 PM 35.3°F1.8°C 31.2°F-0.4°C 85% Calm Calm 2.0 mph3.2 kmh 30.32 in1026.8 mb 0.00 in0.0 mm 0.00 in0.0 mm 0.17 in4.3 mm
11:10 PM 34.8°F1.6°C 30.8°F-0.7°C 85% Calm Calm -- 30.32 in1026.8 mb 0.00 in0.0 mm 0.00 in0.0 mm 0.17 in4.3 mm
11:20 PM 34.1°F1.2°C 30.1°F-1.1°C 85% Calm Calm -- 30.32 in1026.8 mb 0.00 in0.0 mm 0.00 in0.0 mm 0.17 in4.3 mm
11:30 PM 33.3°F0.7°C 29.6°F-1.3°C 86% Calm Calm -- 30.33 in1027.1 mb 0.00 in0.0 mm 0.00 in0.0 mm 0.17 in4.3 mm
11:40 PM 32.6°F0.3°C 29.2°F-1.6°C 87% Calm Calm -- 30.33 in1027.1 mb 0.00 in0.0 mm 0.00 in0.0 mm 0.17 in4.3 mm
11:50 PM 32.1°F0.1°C 28.9°F-1.7°C 88% Calm Calm -- 30.33 in1027.1 mb 0.00 in0.0 mm 0.00 in0.0 mm 0.17 in4.3 mm